sensor_id;sensor_type;location;lat;lon;timestamp;temperature;humidity
29731;DHT22;16639;51.488;0.152;2022-10-13T00:00:42;13.70;99.90
29731;DHT22;16639;51.488;0.152;2022-10-13T00:03:09;13.20;99.90
29731;DHT22;16639;51.488;0.152;2022-10-13T00:05:40;14.20;99.90
29731;DHT22;16639;51.488;0.152;2022-10-13T00:08:08;13.70;99.90
29731;DHT22;16639;51.488;0.152;2022-10-13T00:10:36;13.70;99.90
29731;DHT22;16639;51.488;0.152;2022-10-13T00:13:04;13.70;99.90
29731;DHT22;16639;51.488;0.152;2022-10-13T00:15:31;13.70;99.90
29731;DHT22;16639;51.488;0.152;2022-10-13T00:17:58;13.70;99.90
29731;DHT22;16639;51.488;0.152;2022-10-13T00:20:25;13.70;99.90
29731;DHT22;16639;51.488;0.152;2022-10-13T00:22:52;13.80;99.90
29731;DHT22;16639;51.488;0.152;2022-10-13T00:25:19;14.00;99.90
29731;DHT22;16639;51.488;0.152;2022-10-13T00:27:46;13.70;99.90
29731;DHT22;16639;51.488;0.152;2022-10-13T00:30:13;13.70;99.90
29731;DHT22;16639;51.488;0.152;2022-10-13T00:32:41;13.70;99.90
29731;DHT22;16639;51.488;0.152;2022-10-13T00:35:08;13.70;99.90
29731;DHT22;16639;51.488;0.152;2022-10-13T00:37:35;13.70;99.90
29731;DHT22;16639;51.488;0.152;2022-10-13T00:40:02;13.60;99.90
29731;DHT22;16639;51.488;0.152;2022-10-13T00:42:30;13.60;99.90
29731;DHT22;16639;51.488;0.152;2022-10-13T00:47:27;13.60;99.90
29731;DHT22;16639;51.488;0.152;2022-10-13T00:49:56;13.60;99.90
29731;DHT22;16639;51.488;0.152;2022-10-13T00:52:24;13.60;99.90
29731;DHT22;16639;51.488;0.152;2022-10-13T00:54:51;13.60;99.90
29731;DHT22;16639;51.488;0.152;2022-10-13T00:57:19;13.40;99.90
29731;DHT22;16639;51.488;0.152;2022-10-13T00:59:46;14.30;99.90
29731;DHT22;16639;51.488;0.152;2022-10-13T01:02:14;13.50;99.90
29731;DHT22;16639;51.488;0.152;2022-10-13T01:04:43;13.50;99.90
29731;DHT22;16639;51.488;0.152;2022-10-13T01:07:12;13.50;99.90
29731;DHT22;16639;51.488;0.152;2022-10-13T01:09:40;13.40;99.90
29731;DHT22;16639;51.488;0.152;2022-10-13T01:30:51;13.40;99.90
29731;DHT22;16639;51.488;0.152;2022-10-13T01:41:18;13.40;99.90
29731;DHT22;16639;51.488;0.152;2022-10-13T01:43:54;13.70;99.90
29731;DHT22;16639;51.488;0.152;2022-10-13T01:46:25;13.40;99.90
29731;DHT22;16639;51.488;0.152;2022-10-13T01:48:54;13.40;99.90
29731;DHT22;16639;51.488;0.152;2022-10-13T01:51:22;13.40;99.90
29731;DHT22;16639;51.488;0.152;2022-10-13T01:53:50;13.40;99.90
29731;DHT22;16639;51.488;0.152;2022-10-13T01:56:17;13.40;99.90
29731;DHT22;16639;51.488;0.152;2022-10-13T01:58:44;13.40;99.90
29731;DHT22;16639;51.488;0.152;2022-10-13T02:01:19;13.70;99.90
29731;DHT22;16639;51.488;0.152;2022-10-13T02:06:22;13.40;99.90
29731;DHT22;16639;51.488;0.152;2022-10-13T02:11:21;13.40;99.90
29731;DHT22;16639;51.488;0.152;2022-10-13T02:16:21;13.30;99.90
29731;DHT22;16639;51.488;0.152;2022-10-13T02:18:49;13.40;99.90
29731;DHT22;16639;51.488;0.152;2022-10-13T02:21:17;13.40;99.90
29731;DHT22;16639;51.488;0.152;2022-10-13T02:23:44;13.30;99.90
29731;DHT22;16639;51.488;0.152;2022-10-13T02:26:11;13.40;99.90
29731;DHT22;16639;51.488;0.152;2022-10-13T02:28:39;13.40;99.90
29731;DHT22;16639;51.488;0.152;2022-10-13T02:31:07;13.30;99.90
29731;DHT22;16639;51.488;0.152;2022-10-13T02:33:34;13.40;99.90
29731;DHT22;16639;51.488;0.152;2022-10-13T02:36:01;13.30;99.90
29731;DHT22;16639;51.488;0.152;2022-10-13T02:38:28;13.40;99.90
29731;DHT22;16639;51.488;0.152;2022-10-13T02:40:55;13.30;99.90
29731;DHT22;16639;51.488;0.152;2022-10-13T02:43:22;13.30;99.90
29731;DHT22;16639;51.488;0.152;2022-10-13T02:45:49;13.30;99.90
29731;DHT22;16639;51.488;0.152;2022-10-13T02:48:17;13.40;99.90
29731;DHT22;16639;51.488;0.152;2022-10-13T02:50:45;13.40;99.90
29731;DHT22;16639;51.488;0.152;2022-10-13T02:53:12;13.30;99.90
29731;DHT22;16639;51.488;0.152;2022-10-13T02:55:39;13.30;99.90
29731;DHT22;16639;51.488;0.152;2022-10-13T02:58:06;13.40;99.90
29731;DHT22;16639;51.488;0.152;2022-10-13T03:00:33;13.40;99.90
29731;DHT22;16639;51.488;0.152;2022-10-13T03:03:00;14.20;99.90
29731;DHT22;16639;51.488;0.152;2022-10-13T03:05:27;13.30;99.90
29731;DHT22;16639;51.488;0.152;2022-10-13T03:07:54;13.30;99.90
29731;DHT22;16639;51.488;0.152;2022-10-13T03:10:21;13.30;99.90
29731;DHT22;16639;51.488;0.152;2022-10-13T03:12:49;13.30;99.90
29731;DHT22;16639;51.488;0.152;2022-10-13T03:15:16;13.30;99.90
29731;DHT22;16639;51.488;0.152;2022-10-13T03:17:43;13.40;99.90
29731;DHT22;16639;51.488;0.152;2022-10-13T03:20:10;14.20;99.90
29731;DHT22;16639;51.488;0.152;2022-10-13T03:22:37;13.40;99.90
29731;DHT22;16639;51.488;0.152;2022-10-13T03:25:04;13.40;99.90
29731;DHT22;16639;51.488;0.152;2022-10-13T03:27:32;13.40;99.90
29731;DHT22;16639;51.488;0.152;2022-10-13T03:29:59;13.40;99.90
29731;DHT22;16639;51.488;0.152;2022-10-13T03:32:28;13.30;99.90
29731;DHT22;16639;51.488;0.152;2022-10-13T03:34:55;13.30;99.90
29731;DHT22;16639;51.488;0.152;2022-10-13T03:37:22;13.30;99.90
29731;DHT22;16639;51.488;0.152;2022-10-13T03:39:49;12.30;99.90
29731;DHT22;16639;51.488;0.152;2022-10-13T03:42:17;13.20;99.90
29731;DHT22;16639;51.488;0.152;2022-10-13T03:44:44;13.30;99.90
29731;DHT22;16639;51.488;0.152;2022-10-13T03:47:11;13.30;99.90
29731;DHT22;16639;51.488;0.152;2022-10-13T03:49:39;13.30;99.90
29731;DHT22;16639;51.488;0.152;2022-10-13T03:52:06;13.30;99.90
29731;DHT22;16639;51.488;0.152;2022-10-13T03:54:33;13.30;99.90
29731;DHT22;16639;51.488;0.152;2022-10-13T03:57:00;13.40;99.90
29731;DHT22;16639;51.488;0.152;2022-10-13T03:59:27;13.30;99.90
29731;DHT22;16639;51.488;0.152;2022-10-13T04:02:02;13.20;99.90
29731;DHT22;16639;51.488;0.152;2022-10-13T04:04:29;13.50;99.90
29731;DHT22;16639;51.488;0.152;2022-10-13T04:06:56;12.70;99.90
29731;DHT22;16639;51.488;0.152;2022-10-13T04:09:23;13.30;99.90
29731;DHT22;16639;51.488;0.152;2022-10-13T04:11:51;13.30;99.90
29731;DHT22;16639;51.488;0.152;2022-10-13T04:14:18;13.30;99.90
29731;DHT22;16639;51.488;0.152;2022-10-13T04:16:45;13.30;99.90
29731;DHT22;16639;51.488;0.152;2022-10-13T04:19:13;13.30;99.90
29731;DHT22;16639;51.488;0.152;2022-10-13T04:21:41;13.20;99.90
29731;DHT22;16639;51.488;0.152;2022-10-13T04:24:09;13.30;99.90
29731;DHT22;16639;51.488;0.152;2022-10-13T04:26:37;11.90;99.90
29731;DHT22;16639;51.488;0.152;2022-10-13T04:29:05;13.30;99.90
29731;DHT22;16639;51.488;0.152;2022-10-13T04:31:33;13.30;99.90
29731;DHT22;16639;51.488;0.152;2022-10-13T04:34:00;13.50;99.90
29731;DHT22;16639;51.488;0.152;2022-10-13T04:36:27;13.30;99.90
29731;DHT22;16639;51.488;0.152;2022-10-13T04:38:54;13.30;99.90
29731;DHT22;16639;51.488;0.152;2022-10-13T04:41:21;13.10;99.90
29731;DHT22;16639;51.488;0.152;2022-10-13T04:43:49;13.30;99.90
29731;DHT22;16639;51.488;0.152;2022-10-13T04:46:18;13.30;99.90
29731;DHT22;16639;51.488;0.152;2022-10-13T04:48:45;13.30;99.90
29731;DHT22;16639;51.488;0.152;2022-10-13T04:51:14;13.30;99.90
29731;DHT22;16639;51.488;0.152;2022-10-13T04:53:41;13.30;99.90
29731;DHT22;16639;51.488;0.152;2022-10-13T04:56:10;13.30;99.90
29731;DHT22;16639;51.488;0.152;2022-10-13T04:58:38;13.20;99.90
29731;DHT22;16639;51.488;0.152;2022-10-13T05:01:06;13.20;99.90
29731;DHT22;16639;51.488;0.152;2022-10-13T05:03:34;13.30;99.90
29731;DHT22;16639;51.488;0.152;2022-10-13T05:06:01;13.20;99.90
29731;DHT22;16639;51.488;0.152;2022-10-13T05:08:28;13.20;99.90
29731;DHT22;16639;51.488;0.152;2022-10-13T05:10:56;13.20;99.90
29731;DHT22;16639;51.488;0.152;2022-10-13T05:13:24;13.20;99.90
29731;DHT22;16639;51.488;0.152;2022-10-13T05:15:51;13.20;99.90
29731;DHT22;16639;51.488;0.152;2022-10-13T05:18:19;13.20;99.90
29731;DHT22;16639;51.488;0.152;2022-10-13T05:20:46;13.20;99.90
29731;DHT22;16639;51.488;0.152;2022-10-13T05:23:13;13.20;99.90
29731;DHT22;16639;51.488;0.152;2022-10-13T05:25:40;14.70;99.90
29731;DHT22;16639;51.488;0.152;2022-10-13T05:28:07;13.20;99.90
29731;DHT22;16639;51.488;0.152;2022-10-13T05:30:35;13.20;99.90
29731;DHT22;16639;51.488;0.152;2022-10-13T05:33:02;13.20;99.90
29731;DHT22;16639;51.488;0.152;2022-10-13T05:35:29;13.90;99.90
29731;DHT22;16639;51.488;0.152;2022-10-13T05:37:56;13.20;99.90
29731;DHT22;16639;51.488;0.152;2022-10-13T05:40:23;13.20;99.90
29731;DHT22;16639;51.488;0.152;2022-10-13T05:42:50;13.20;99.90
29731;DHT22;16639;51.488;0.152;2022-10-13T05:45:18;13.20;99.90
29731;DHT22;16639;51.488;0.152;2022-10-13T05:47:45;13.20;99.90
29731;DHT22;16639;51.488;0.152;2022-10-13T05:50:12;13.20;99.90
29731;DHT22;16639;51.488;0.152;2022-10-13T05:52:39;13.20;99.90
29731;DHT22;16639;51.488;0.152;2022-10-13T05:55:07;13.20;99.90
29731;DHT22;16639;51.488;0.152;2022-10-13T05:57:37;13.20;99.90
29731;DHT22;16639;51.488;0.152;2022-10-13T06:00:07;13.20;99.90
29731;DHT22;16639;51.488;0.152;2022-10-13T06:02:36;13.50;99.90
29731;DHT22;16639;51.488;0.152;2022-10-13T06:05:05;13.30;99.90
29731;DHT22;16639;51.488;0.152;2022-10-13T06:07:36;13.20;99.90
29731;DHT22;16639;51.488;0.152;2022-10-13T06:10:04;13.20;99.90
29731;DHT22;16639;51.488;0.152;2022-10-13T06:12:31;13.20;99.90
29731;DHT22;16639;51.488;0.152;2022-10-13T06:14:58;13.20;99.90
29731;DHT22;16639;51.488;0.152;2022-10-13T06:17:25;13.20;99.90
29731;DHT22;16639;51.488;0.152;2022-10-13T06:19:52;13.20;99.90
29731;DHT22;16639;51.488;0.152;2022-10-13T06:22:19;13.20;99.90
29731;DHT22;16639;51.488;0.152;2022-10-13T06:24:48;13.20;99.90
29731;DHT22;16639;51.488;0.152;2022-10-13T06:27:15;13.20;99.90
29731;DHT22;16639;51.488;0.152;2022-10-13T06:29:42;13.90;99.90
29731;DHT22;16639;51.488;0.152;2022-10-13T06:32:09;13.20;99.90
29731;DHT22;16639;51.488;0.152;2022-10-13T06:34:36;13.10;99.90
29731;DHT22;16639;51.488;0.152;2022-10-13T06:37:03;13.10;99.90
29731;DHT22;16639;51.488;0.152;2022-10-13T06:39:31;13.20;99.90
29731;DHT22;16639;51.488;0.152;2022-10-13T06:41:58;13.10;99.90
29731;DHT22;16639;51.488;0.152;2022-10-13T06:44:25;13.10;99.90
29731;DHT22;16639;51.488;0.152;2022-10-13T06:46:52;13.20;99.90
29731;DHT22;16639;51.488;0.152;2022-10-13T06:49:19;13.20;99.90
29731;DHT22;16639;51.488;0.152;2022-10-13T06:51:46;13.20;99.90
29731;DHT22;16639;51.488;0.152;2022-10-13T06:54:14;13.20;99.90
29731;DHT22;16639;51.488;0.152;2022-10-13T06:56:41;13.20;99.90
29731;DHT22;16639;51.488;0.152;2022-10-13T06:59:09;13.20;99.90
29731;DHT22;16639;51.488;0.152;2022-10-13T07:01:36;13.20;99.90
29731;DHT22;16639;51.488;0.152;2022-10-13T07:04:07;13.20;99.90
29731;DHT22;16639;51.488;0.152;2022-10-13T07:06:34;13.30;99.90
29731;DHT22;16639;51.488;0.152;2022-10-13T07:09:02;13.20;99.90
29731;DHT22;16639;51.488;0.152;2022-10-13T07:11:30;13.20;99.90
29731;DHT22;16639;51.488;0.152;2022-10-13T07:13:58;13.20;99.90
29731;DHT22;16639;51.488;0.152;2022-10-13T07:16:25;13.20;99.90
29731;DHT22;16639;51.488;0.152;2022-10-13T07:18:52;13.10;99.90
29731;DHT22;16639;51.488;0.152;2022-10-13T07:21:19;13.20;99.90
29731;DHT22;16639;51.488;0.152;2022-10-13T07:23:47;13.20;99.90
29731;DHT22;16639;51.488;0.152;2022-10-13T07:26:15;13.20;99.90
29731;DHT22;16639;51.488;0.152;2022-10-13T07:28:42;13.20;99.90
29731;DHT22;16639;51.488;0.152;2022-10-13T07:31:10;13.20;99.90
29731;DHT22;16639;51.488;0.152;2022-10-13T07:33:40;13.30;99.90
29731;DHT22;16639;51.488;0.152;2022-10-13T07:36:07;13.30;99.90
29731;DHT22;16639;51.488;0.152;2022-10-13T07:38:34;13.30;99.90
29731;DHT22;16639;51.488;0.152;2022-10-13T07:41:02;13.40;99.90
29731;DHT22;16639;51.488;0.152;2022-10-13T07:43:30;13.40;99.90
29731;DHT22;16639;51.488;0.152;2022-10-13T07:45:58;13.40;99.90
29731;DHT22;16639;51.488;0.152;2022-10-13T07:48:25;13.40;99.90
29731;DHT22;16639;51.488;0.152;2022-10-13T07:50:53;13.50;99.90
29731;DHT22;16639;51.488;0.152;2022-10-13T07:53:20;13.50;99.90
29731;DHT22;16639;51.488;0.152;2022-10-13T07:55:47;13.50;99.90
29731;DHT22;16639;51.488;0.152;2022-10-13T07:58:14;13.60;99.90
29731;DHT22;16639;51.488;0.152;2022-10-13T08:00:41;13.60;99.90
29731;DHT22;16639;51.488;0.152;2022-10-13T08:03:08;13.60;99.90
29731;DHT22;16639;51.488;0.152;2022-10-13T08:05:35;13.70;99.90
29731;DHT22;16639;51.488;0.152;2022-10-13T08:08:02;13.70;99.90
29731;DHT22;16639;51.488;0.152;2022-10-13T08:10:29;13.70;99.90
29731;DHT22;16639;51.488;0.152;2022-10-13T08:12:56;13.80;99.90
29731;DHT22;16639;51.488;0.152;2022-10-13T08:15:24;13.80;99.90
29731;DHT22;16639;51.488;0.152;2022-10-13T08:17:51;13.80;99.90
29731;DHT22;16639;51.488;0.152;2022-10-13T08:20:18;13.90;99.90
29731;DHT22;16639;51.488;0.152;2022-10-13T08:22:45;13.90;99.90
29731;DHT22;16639;51.488;0.152;2022-10-13T08:25:12;14.00;99.90
29731;DHT22;16639;51.488;0.152;2022-10-13T08:27:39;15.20;99.90
29731;DHT22;16639;51.488;0.152;2022-10-13T08:30:17;14.00;99.90
29731;DHT22;16639;51.488;0.152;2022-10-13T08:32:45;14.10;99.90
29731;DHT22;16639;51.488;0.152;2022-10-13T08:35:12;14.00;99.90
29731;DHT22;16639;51.488;0.152;2022-10-13T08:37:39;14.10;99.90
29731;DHT22;16639;51.488;0.152;2022-10-13T08:40:06;14.20;99.90
29731;DHT22;16639;51.488;0.152;2022-10-13T08:42:37;14.30;99.90
29731;DHT22;16639;51.488;0.152;2022-10-13T08:45:09;14.30;99.90
29731;DHT22;16639;51.488;0.152;2022-10-13T08:50:32;14.40;99.90
29731;DHT22;16639;51.488;0.152;2022-10-13T08:53:03;14.40;99.90
29731;DHT22;16639;51.488;0.152;2022-10-13T08:58:14;14.40;99.90
29731;DHT22;16639;51.488;0.152;2022-10-13T09:00:42;14.40;99.90
29731;DHT22;16639;51.488;0.152;2022-10-13T09:03:18;14.40;99.90
29731;DHT22;16639;51.488;0.152;2022-10-13T09:05:49;14.40;99.90
29731;DHT22;16639;51.488;0.152;2022-10-13T09:08:21;14.40;99.90
29731;DHT22;16639;51.488;0.152;2022-10-13T09:10:49;14.30;99.90
29731;DHT22;16639;51.488;0.152;2022-10-13T09:13:17;14.30;99.90
29731;DHT22;16639;51.488;0.152;2022-10-13T09:15:45;14.30;99.90
29731;DHT22;16639;51.488;0.152;2022-10-13T09:18:12;14.20;99.90
29731;DHT22;16639;51.488;0.152;2022-10-13T09:20:40;14.30;99.90
29731;DHT22;16639;51.488;0.152;2022-10-13T09:23:17;14.20;99.90
29731;DHT22;16639;51.488;0.152;2022-10-13T09:25:48;14.30;99.90
29731;DHT22;16639;51.488;0.152;2022-10-13T09:28:27;15.20;99.90
29731;DHT22;16639;51.488;0.152;2022-10-13T09:31:05;14.00;99.90
29731;DHT22;16639;51.488;0.152;2022-10-13T09:33:39;14.20;99.90
29731;DHT22;16639;51.488;0.152;2022-10-13T09:36:13;14.20;99.90
29731;DHT22;16639;51.488;0.152;2022-10-13T09:39:03;14.30;99.90
29731;DHT22;16639;51.488;0.152;2022-10-13T09:41:31;14.30;99.90
29731;DHT22;16639;51.488;0.152;2022-10-13T09:44:01;14.20;99.90
29731;DHT22;16639;51.488;0.152;2022-10-13T09:46:32;14.20;99.90
29731;DHT22;16639;51.488;0.152;2022-10-13T09:49:07;14.20;99.90
29731;DHT22;16639;51.488;0.152;2022-10-13T09:51:47;14.30;99.90
29731;DHT22;16639;51.488;0.152;2022-10-13T09:54:27;13.80;99.90
29731;DHT22;16639;51.488;0.152;2022-10-13T09:59:48;14.50;99.90
29731;DHT22;16639;51.488;0.152;2022-10-13T10:02:18;14.20;99.90
29731;DHT22;16639;51.488;0.152;2022-10-13T10:04:50;14.20;99.90
29731;DHT22;16639;51.488;0.152;2022-10-13T10:07:20;14.10;99.90
29731;DHT22;16639;51.488;0.152;2022-10-13T10:09:50;14.10;99.90
29731;DHT22;16639;51.488;0.152;2022-10-13T10:12:20;14.10;99.90
29731;DHT22;16639;51.488;0.152;2022-10-13T10:14:53;14.10;99.90
29731;DHT22;16639;51.488;0.152;2022-10-13T10:27:43;14.10;99.90
29731;DHT22;16639;51.488;0.152;2022-10-13T10:30:14;14.20;99.90
29731;DHT22;16639;51.488;0.152;2022-10-13T10:32:46;14.20;99.90
29731;DHT22;16639;51.488;0.152;2022-10-13T10:35:17;14.20;99.90
29731;DHT22;16639;51.488;0.152;2022-10-13T10:40:17;14.30;99.90
29731;DHT22;16639;51.488;0.152;2022-10-13T10:42:57;14.30;99.90
29731;DHT22;16639;51.488;0.152;2022-10-13T10:45:27;14.30;99.90
29731;DHT22;16639;51.488;0.152;2022-10-13T10:47:58;14.30;99.90
29731;DHT22;16639;51.488;0.152;2022-10-13T10:50:26;14.30;99.90
29731;DHT22;16639;51.488;0.152;2022-10-13T10:53:05;14.30;99.90
29731;DHT22;16639;51.488;0.152;2022-10-13T10:55:44;14.60;99.90
29731;DHT22;16639;51.488;0.152;2022-10-13T11:00:42;14.30;99.90
29731;DHT22;16639;51.488;0.152;2022-10-13T11:03:18;14.30;99.90
29731;DHT22;16639;51.488;0.152;2022-10-13T11:11:49;14.60;99.90
29731;DHT22;16639;51.488;0.152;2022-10-13T11:21:55;14.50;99.90
29731;DHT22;16639;51.488;0.152;2022-10-13T11:29:57;15.30;99.90
29731;DHT22;16639;51.488;0.152;2022-10-13T11:35:25;15.30;99.90
29731;DHT22;16639;51.488;0.152;2022-10-13T11:40:59;15.60;99.90
29731;DHT22;16639;51.488;0.152;2022-10-13T11:43:41;15.50;99.90
29731;DHT22;16639;51.488;0.152;2022-10-13T11:46:22;15.50;99.90
29731;DHT22;16639;51.488;0.152;2022-10-13T11:51:23;15.40;99.90
29731;DHT22;16639;51.488;0.152;2022-10-13T11:56:45;15.40;99.90
29731;DHT22;16639;51.488;0.152;2022-10-13T12:01:51;15.50;99.90
29731;DHT22;16639;51.488;0.152;2022-10-13T12:04:20;15.30;99.90
29731;DHT22;16639;51.488;0.152;2022-10-13T12:06:52;15.20;99.90
29731;DHT22;16639;51.488;0.152;2022-10-13T12:09:20;15.10;99.90
29731;DHT22;16639;51.488;0.152;2022-10-13T12:11:54;15.00;99.90
29731;DHT22;16639;51.488;0.152;2022-10-13T12:14:25;14.90;99.90
29731;DHT22;16639;51.488;0.152;2022-10-13T12:16:54;14.90;99.90
29731;DHT22;16639;51.488;0.152;2022-10-13T12:19:27;14.80;99.90
29731;DHT22;16639;51.488;0.152;2022-10-13T12:21:56;14.80;99.90
29731;DHT22;16639;51.488;0.152;2022-10-13T12:24:24;14.80;99.90
29731;DHT22;16639;51.488;0.152;2022-10-13T12:26:52;14.80;99.90
29731;DHT22;16639;51.488;0.152;2022-10-13T12:29:23;14.70;99.90
29731;DHT22;16639;51.488;0.152;2022-10-13T12:31:50;14.80;99.90
29731;DHT22;16639;51.488;0.152;2022-10-13T12:36:45;14.80;99.90
29731;DHT22;16639;51.488;0.152;2022-10-13T12:39:13;14.90;99.90
29731;DHT22;16639;51.488;0.152;2022-10-13T12:41:44;15.00;99.90
29731;DHT22;16639;51.488;0.152;2022-10-13T12:44:22;15.10;99.90
29731;DHT22;16639;51.488;0.152;2022-10-13T12:46:51;15.10;99.90
29731;DHT22;16639;51.488;0.152;2022-10-13T12:49:20;15.20;99.90
29731;DHT22;16639;51.488;0.152;2022-10-13T12:51:49;15.20;99.90
29731;DHT22;16639;51.488;0.152;2022-10-13T12:54:19;15.30;99.90
29731;DHT22;16639;51.488;0.152;2022-10-13T12:56:48;15.30;99.90
29731;DHT22;16639;51.488;0.152;2022-10-13T12:59:22;15.30;99.90
29731;DHT22;16639;51.488;0.152;2022-10-13T13:01:57;14.90;99.90
29731;DHT22;16639;51.488;0.152;2022-10-13T13:06:58;15.40;99.90
29731;DHT22;16639;51.488;0.152;2022-10-13T13:09:27;15.40;99.90
29731;DHT22;16639;51.488;0.152;2022-10-13T13:19:32;15.40;99.90
29731;DHT22;16639;51.488;0.152;2022-10-13T13:21:59;15.40;99.90
29731;DHT22;16639;51.488;0.152;2022-10-13T13:24:26;15.40;99.90
29731;DHT22;16639;51.488;0.152;2022-10-13T13:27:10;15.30;99.90
29731;DHT22;16639;51.488;0.152;2022-10-13T13:29:41;15.30;99.90
29731;DHT22;16639;51.488;0.152;2022-10-13T13:32:15;15.20;99.90
29731;DHT22;16639;51.488;0.152;2022-10-13T13:34:46;15.20;99.90
29731;DHT22;16639;51.488;0.152;2022-10-13T13:37:15;15.10;99.90
29731;DHT22;16639;51.488;0.152;2022-10-13T13:39:46;15.10;99.90
29731;DHT22;16639;51.488;0.152;2022-10-13T13:42:13;15.10;99.90
29731;DHT22;16639;51.488;0.152;2022-10-13T13:44:41;14.30;99.90
29731;DHT22;16639;51.488;0.152;2022-10-13T13:47:15;15.00;99.90
29731;DHT22;16639;51.488;0.152;2022-10-13T13:49:43;15.00;99.90
29731;DHT22;16639;51.488;0.152;2022-10-13T13:52:10;15.10;99.90
29731;DHT22;16639;51.488;0.152;2022-10-13T13:54:37;15.00;99.90
29731;DHT22;16639;51.488;0.152;2022-10-13T13:57:05;15.10;99.90
29731;DHT22;16639;51.488;0.152;2022-10-13T13:59:32;15.00;99.90
29731;DHT22;16639;51.488;0.152;2022-10-13T14:01:59;15.00;99.90
29731;DHT22;16639;51.488;0.152;2022-10-13T14:04:27;15.00;99.90
29731;DHT22;16639;51.488;0.152;2022-10-13T14:06:54;15.00;99.90
29731;DHT22;16639;51.488;0.152;2022-10-13T14:09:21;15.00;99.90
29731;DHT22;16639;51.488;0.152;2022-10-13T14:11:48;15.00;99.90
29731;DHT22;16639;51.488;0.152;2022-10-13T14:14:15;15.00;99.90
29731;DHT22;16639;51.488;0.152;2022-10-13T14:16:42;15.10;99.90
29731;DHT22;16639;51.488;0.152;2022-10-13T14:19:09;15.20;99.90
29731;DHT22;16639;51.488;0.152;2022-10-13T14:21:36;15.20;99.90
29731;DHT22;16639;51.488;0.152;2022-10-13T14:24:03;15.30;99.90
29731;DHT22;16639;51.488;0.152;2022-10-13T14:26:31;15.30;99.90
29731;DHT22;16639;51.488;0.152;2022-10-13T14:28:58;15.40;99.90
29731;DHT22;16639;51.488;0.152;2022-10-13T14:31:25;15.40;99.90
29731;DHT22;16639;51.488;0.152;2022-10-13T14:33:52;15.40;99.90
29731;DHT22;16639;51.488;0.152;2022-10-13T14:36:20;15.40;99.90
29731;DHT22;16639;51.488;0.152;2022-10-13T14:38:48;15.40;99.90
29731;DHT22;16639;51.488;0.152;2022-10-13T14:41:17;15.40;99.90
29731;DHT22;16639;51.488;0.152;2022-10-13T14:43:44;15.30;99.90
29731;DHT22;16639;51.488;0.152;2022-10-13T14:46:12;15.80;99.90
29731;DHT22;16639;51.488;0.152;2022-10-13T14:48:39;15.30;99.90
29731;DHT22;16639;51.488;0.152;2022-10-13T14:51:07;15.20;99.90
29731;DHT22;16639;51.488;0.152;2022-10-13T14:53:36;15.20;99.90
29731;DHT22;16639;51.488;0.152;2022-10-13T14:56:11;15.20;99.90
29731;DHT22;16639;51.488;0.152;2022-10-13T14:58:39;15.10;99.90
29731;DHT22;16639;51.488;0.152;2022-10-13T15:01:06;15.10;99.90
29731;DHT22;16639;51.488;0.152;2022-10-13T15:03:34;15.10;99.90
29731;DHT22;16639;51.488;0.152;2022-10-13T15:06:01;15.20;99.90
29731;DHT22;16639;51.488;0.152;2022-10-13T15:08:28;15.10;99.90
29731;DHT22;16639;51.488;0.152;2022-10-13T15:10:58;15.10;99.90
29731;DHT22;16639;51.488;0.152;2022-10-13T15:13:25;15.10;99.90
29731;DHT22;16639;51.488;0.152;2022-10-13T15:15:52;15.10;99.90
29731;DHT22;16639;51.488;0.152;2022-10-13T15:18:19;15.10;99.90
29731;DHT22;16639;51.488;0.152;2022-10-13T15:20:51;15.10;99.90
29731;DHT22;16639;51.488;0.152;2022-10-13T15:23:19;15.10;99.90
29731;DHT22;16639;51.488;0.152;2022-10-13T15:25:53;15.10;99.90
29731;DHT22;16639;51.488;0.152;2022-10-13T15:28:22;15.10;99.90
29731;DHT22;16639;51.488;0.152;2022-10-13T15:30:50;15.00;99.90
29731;DHT22;16639;51.488;0.152;2022-10-13T15:33:18;15.00;99.90
29731;DHT22;16639;51.488;0.152;2022-10-13T15:35:49;15.00;99.90
29731;DHT22;16639;51.488;0.152;2022-10-13T15:38:16;15.00;99.90
29731;DHT22;16639;51.488;0.152;2022-10-13T15:40:43;15.00;99.90
29731;DHT22;16639;51.488;0.152;2022-10-13T15:43:11;16.10;99.90
29731;DHT22;16639;51.488;0.152;2022-10-13T15:45:38;15.00;99.90
29731;DHT22;16639;51.488;0.152;2022-10-13T15:48:06;14.90;99.90
29731;DHT22;16639;51.488;0.152;2022-10-13T15:50:34;14.90;99.90
29731;DHT22;16639;51.488;0.152;2022-10-13T15:53:04;14.90;99.90
29731;DHT22;16639;51.488;0.152;2022-10-13T15:55:31;14.00;99.90
29731;DHT22;16639;51.488;0.152;2022-10-13T15:57:58;14.90;99.90
29731;DHT22;16639;51.488;0.152;2022-10-13T16:00:25;14.90;99.90
29731;DHT22;16639;51.488;0.152;2022-10-13T16:02:53;15.30;99.90
29731;DHT22;16639;51.488;0.152;2022-10-13T16:05:20;14.80;99.90
29731;DHT22;16639;51.488;0.152;2022-10-13T16:07:47;14.80;99.90
29731;DHT22;16639;51.488;0.152;2022-10-13T16:10:14;14.70;99.90
29731;DHT22;16639;51.488;0.152;2022-10-13T16:12:41;14.70;99.90
29731;DHT22;16639;51.488;0.152;2022-10-13T16:15:15;14.70;99.90
29731;DHT22;16639;51.488;0.152;2022-10-13T16:17:43;14.60;99.90
29731;DHT22;16639;51.488;0.152;2022-10-13T16:20:12;14.60;99.90
29731;DHT22;16639;51.488;0.152;2022-10-13T16:22:39;15.30;99.90
29731;DHT22;16639;51.488;0.152;2022-10-13T16:25:06;14.50;99.90
29731;DHT22;16639;51.488;0.152;2022-10-13T16:27:34;14.50;99.90
29731;DHT22;16639;51.488;0.152;2022-10-13T16:30:04;14.40;99.90
29731;DHT22;16639;51.488;0.152;2022-10-13T16:32:36;15.30;99.90
29731;DHT22;16639;51.488;0.152;2022-10-13T16:35:03;14.90;99.90
29731;DHT22;16639;51.488;0.152;2022-10-13T16:37:30;14.30;99.90
29731;DHT22;16639;51.488;0.152;2022-10-13T16:39:57;14.20;99.90
29731;DHT22;16639;51.488;0.152;2022-10-13T16:42:25;14.20;99.90
29731;DHT22;16639;51.488;0.152;2022-10-13T16:44:52;14.20;99.90
29731;DHT22;16639;51.488;0.152;2022-10-13T16:47:19;14.70;99.90
29731;DHT22;16639;51.488;0.152;2022-10-13T16:49:47;14.10;99.90
29731;DHT22;16639;51.488;0.152;2022-10-13T16:52:14;14.10;99.90
29731;DHT22;16639;51.488;0.152;2022-10-13T16:54:41;14.10;99.90
29731;DHT22;16639;51.488;0.152;2022-10-13T16:57:08;15.20;99.90
29731;DHT22;16639;51.488;0.152;2022-10-13T16:59:35;14.10;99.90
29731;DHT22;16639;51.488;0.152;2022-10-13T17:02:02;13.90;99.90
29731;DHT22;16639;51.488;0.152;2022-10-13T17:04:29;13.90;99.90
29731;DHT22;16639;51.488;0.152;2022-10-13T17:06:57;13.80;99.90
29731;DHT22;16639;51.488;0.152;2022-10-13T17:09:24;13.80;99.90
29731;DHT22;16639;51.488;0.152;2022-10-13T17:11:51;14.30;99.90
29731;DHT22;16639;51.488;0.152;2022-10-13T17:14:18;13.80;99.90
29731;DHT22;16639;51.488;0.152;2022-10-13T17:16:46;13.80;99.90
29731;DHT22;16639;51.488;0.152;2022-10-13T17:19:13;13.70;99.90
29731;DHT22;16639;51.488;0.152;2022-10-13T17:21:41;13.70;99.90
29731;DHT22;16639;51.488;0.152;2022-10-13T17:24:08;13.60;99.90